Time;durP1;ratioP1;P1;durP2;ratioP2;P2;SDS_P1;SDS_P2;PMS_P1;PMS_P2;Temp;Humidity;BMP_temperature;BMP_pressure;BME280_temperature;BME280_humidity;BME280_pressure;Samples;Min_cycle;Max_cycle;Signal;HPM_P1;HPM_P2
2023/11/14 00:02:00;;;;;;;7.03;1.55;;;11.90;90.70;;;;;;4786703;30;20073;-76
2023/11/14 00:04:26;;;;;;;6.57;1.40;;;11.90;90.60;;;;;;4770840;30;20499;-76
2023/11/14 00:06:52;;;;;;;4.80;1.50;;;11.90;90.60;;;;;;4770262;30;20050;-77
2023/11/14 00:09:17;;;;;;;4.22;1.25;;;11.90;90.60;;;;;;4786983;30;20039;-77
2023/11/14 00:11:43;;;;;;;6.40;1.60;;;11.90;90.60;;;;;;4770272;30;20475;-77
2023/11/14 00:14:09;;;;;;;4.13;1.10;;;12.00;90.60;;;;;;4770167;30;20043;-77
2023/11/14 00:16:35;;;;;;;8.10;1.48;;;11.90;90.60;;;;;;4786663;30;20077;-77
2023/11/14 00:19:01;;;;;;;5.03;1.30;;;12.00;90.60;;;;;;4754320;30;20028;-77
2023/11/14 00:21:27;;;;;;;5.82;1.52;;;12.00;90.60;;;;;;4786536;30;20035;-75
2023/11/14 00:23:52;;;;;;;7.07;1.63;;;12.00;90.60;;;;;;4758457;30;20395;-76
2023/11/14 00:26:18;;;;;;;7.53;1.73;;;12.00;90.60;;;;;;4789427;30;20044;-77
2023/11/14 00:29:08;;;;;;;6.03;1.60;;;12.10;90.60;;;;;;4773841;30;20147;-76
2023/11/14 00:31:34;;;;;;;8.23;1.63;;;12.00;90.50;;;;;;4766003;29;20115;-74
2023/11/14 00:34:00;;;;;;;5.50;1.58;;;12.10;90.50;;;;;;4790144;29;20468;-76
2023/11/14 00:36:26;;;;;;;5.15;1.58;;;12.10;90.40;;;;;;4789495;29;20146;-77
2023/11/14 00:38:51;;;;;;;6.95;1.60;;;12.10;90.40;;;;;;4773589;30;20035;-76
2023/11/14 00:41:17;;;;;;;8.02;1.98;;;12.10;90.40;;;;;;4789772;30;20106;-77
2023/11/14 00:43:43;;;;;;;5.10;1.40;;;12.10;90.40;;;;;;4773387;29;20047;-76
2023/11/14 00:46:12;;;;;;;4.60;1.60;;;12.20;90.40;;;;;;4773416;30;20036;-77
2023/11/14 00:48:38;;;;;;;8.48;2.22;;;12.20;90.30;;;;;;4773498;29;20035;-76
2023/11/14 00:51:04;;;;;;;7.47;1.70;;;12.20;90.40;;;;;;4789433;29;20093;-76
2023/11/14 00:53:30;;;;;;;5.35;1.67;;;12.20;90.60;;;;;;4773043;29;20047;-77
2023/11/14 00:55:55;;;;;;;6.75;1.45;;;12.20;90.60;;;;;;4789802;29;20079;-76
2023/11/14 00:58:22;;;;;;;6.90;1.60;;;12.20;90.30;;;;;;4773142;30;20044;-75
2023/11/14 01:00:47;;;;;;;6.95;1.58;;;12.30;90.30;;;;;;4773101;29;20039;-75
2023/11/14 01:03:13;;;;;;;4.85;1.30;;;12.20;90.20;;;;;;4773158;30;20043;-75
2023/11/14 01:05:39;;;;;;;3.83;1.38;;;12.30;90.30;;;;;;4789382;29;20126;-74
2023/11/14 01:08:05;;;;;;;4.53;1.27;;;12.30;90.30;;;;;;4772672;29;20119;-75
2023/11/14 01:10:31;;;;;;;6.45;1.27;;;12.20;90.30;;;;;;4789044;29;21466;-74
2023/11/14 01:13:00;;;;;;;7.90;1.50;;;12.30;90.30;;;;;;4788710;29;20463;-74
2023/11/14 01:15:26;;;;;;;5.47;1.75;;;12.20;90.30;;;;;;4772745;30;20051;-75
2023/11/14 01:17:52;;;;;;;5.88;1.60;;;12.30;90.30;;;;;;4772684;30;20050;-75
2023/11/14 01:20:18;;;;;;;5.88;1.42;;;12.30;90.30;;;;;;4772789;29;20036;-74
2023/11/14 01:22:44;;;;;;;5.55;1.70;;;12.30;90.30;;;;;;4789258;29;20097;-75
2023/11/14 01:25:09;;;;;;;6.82;1.38;;;12.20;90.20;;;;;;4772582;29;20036;-75
2023/11/14 01:27:36;;;;;;;7.00;1.70;;;12.30;90.20;;;;;;4772748;29;20047;-74
2023/11/14 01:30:02;;;;;;;5.45;1.30;;;12.30;90.20;;;;;;4772825;30;20031;-73
2023/11/14 01:32:28;;;;;;;4.22;1.38;;;12.30;90.20;;;;;;4788940;30;20410;-74
2023/11/14 01:34:55;;;;;;;7.72;2.00;;;12.30;90.20;;;;;;4772549;30;20035;-75
2023/11/14 01:37:21;;;;;;;6.88;1.40;;;12.30;90.20;;;;;;4742686;30;20058;-73
2023/11/14 01:39:47;;;;;;;4.80;1.25;;;12.30;90.20;;;;;;4772277;29;20145;-74
2023/11/14 01:42:19;;;;;;;6.25;1.90;;;12.30;90.20;;;;;;4743019;30;20061;-74
2023/11/14 01:44:45;;;;;;;6.53;1.60;;;12.30;90.20;;;;;;4758369;29;20409;-75
2023/11/14 01:47:12;;;;;;;5.78;1.85;;;12.20;90.20;;;;;;4756544;30;20142;-75
2023/11/14 01:49:38;;;;;;;5.47;1.45;;;12.30;90.20;;;;;;4757552;30;20050;-75
2023/11/14 01:52:04;;;;;;;6.05;1.48;;;12.30;90.20;;;;;;4788343;30;20475;-75
2023/11/14 01:54:31;;;;;;;4.80;1.58;;;12.20;90.20;;;;;;4788096;30;20487;-75
2023/11/14 01:56:58;;;;;;;6.57;1.40;;;12.20;90.20;;;;;;4741281;30;20056;-75
2023/11/14 01:59:24;;;;;;;6.25;1.63;;;12.20;90.30;;;;;;4742214;30;20047;-76
2023/11/14 02:01:52;;;;;;;6.30;1.50;;;12.20;90.30;;;;;;4742185;30;20044;-76
2023/11/14 02:04:21;;;;;;;7.00;1.52;;;12.20;90.30;;;;;;4787909;30;20043;-76
2023/11/14 02:06:49;;;;;;;6.82;1.30;;;12.20;90.30;;;;;;4742278;30;20055;-76
2023/11/14 02:09:14;;;;;;;3.65;1.30;;;12.20;90.30;;;;;;4771933;30;20043;-76
2023/11/14 02:11:44;;;;;;;4.97;1.42;;;12.20;90.30;;;;;;4772378;30;20051;-76
2023/11/14 02:14:13;;;;;;;4.97;1.40;;;12.20;90.30;;;;;;4787774;30;20051;-76
2023/11/14 02:16:55;;;;;;;6.88;1.50;;;12.20;90.30;;;;;;4756468;30;20055;-75
2023/11/14 02:19:22;;;;;;;5.30;1.45;;;12.20;90.40;;;;;;4756923;30;20579;-76
2023/11/14 02:21:50;;;;;;;6.70;1.52;;;12.20;90.30;;;;;;4757141;30;20051;-75
2023/11/14 02:24:18;;;;;;;8.00;1.40;;;12.20;90.30;;;;;;4742159;30;20039;-74
2023/11/14 02:26:47;;;;;;;4.57;1.30;;;12.10;90.30;;;;;;4757084;30;20484;-76
2023/11/14 02:29:15;;;;;;;4.22;1.30;;;12.20;90.40;;;;;;4771742;30;20079;-75
2023/11/14 02:31:42;;;;;;;7.78;1.58;;;12.20;90.30;;;;;;4742005;30;20150;-75
2023/11/14 02:34:20;;;;;;;8.68;1.73;;;12.20;90.30;;;;;;4741720;30;20047;-75
2023/11/14 02:36:47;;;;;;;5.30;1.40;;;12.20;90.30;;;;;;4756786;30;20461;-75
2023/11/14 02:39:13;;;;;;;5.40;1.35;;;12.20;90.30;;;;;;4737643;30;20048;-75
2023/11/14 02:41:39;;;;;;;5.97;1.33;;;12.20;90.30;;;;;;4752292;30;20039;-75
2023/11/14 02:44:05;;;;;;;7.78;1.45;;;12.20;90.30;;;;;;4767493;30;20043;-75
2023/11/14 02:46:32;;;;;;;6.03;1.73;;;12.20;90.30;;;;;;4766926;30;20467;-75
2023/11/14 02:49:10;;;;;;;4.13;1.50;;;12.30;90.30;;;;;;4767921;30;20479;-76
2023/11/14 02:51:36;;;;;;;6.10;1.52;;;12.30;90.30;;;;;;4767241;30;20535;-75
2023/11/14 02:54:01;;;;;;;7.45;1.38;;;12.20;90.30;;;;;;4767141;30;20050;-75
2023/11/14 02:56:27;;;;;;;5.30;1.35;;;12.20;90.30;;;;;;4767193;30;20058;-75
2023/11/14 02:58:52;;;;;;;4.88;1.40;;;12.20;90.30;;;;;;4752474;30;20040;-75
2023/11/14 03:01:18;;;;;;;5.40;1.25;;;12.20;90.30;;;;;;4752532;30;20040;-75
2023/11/14 03:03:44;;;;;;;6.03;1.70;;;12.20;90.30;;;;;;4767296;30;20054;-75
2023/11/14 03:06:10;;;;;;;8.27;1.90;;;12.30;90.30;;;;;;4752182;30;20048;-75
2023/11/14 03:08:36;;;;;;;6.32;2.03;;;12.30;90.40;;;;;;4767382;30;20187;-75
2023/11/14 03:11:01;;;;;;;8.13;1.33;;;12.20;90.30;;;;;;4753009;30;20054;-75
2023/11/14 03:13:27;;;;;;;6.43;1.52;;;12.20;90.30;;;;;;4787324;30;20043;-75
2023/11/14 03:15:53;;;;;;;6.30;1.20;;;12.30;90.40;;;;;;4786776;30;20051;-75
2023/11/14 03:18:18;;;;;;;5.35;1.27;;;12.30;90.30;;;;;;4786744;30;20037;-74
2023/11/14 03:20:44;;;;;;;6.82;1.48;;;12.30;90.30;;;;;;4786866;30;20471;-75
2023/11/14 03:23:10;;;;;;;4.80;1.33;;;12.30;90.40;;;;;;4786955;30;20122;-75
2023/11/14 03:25:36;;;;;;;5.82;1.40;;;12.20;90.30;;;;;;4787248;30;20043;-75
2023/11/14 03:28:01;;;;;;;7.32;1.75;;;12.30;90.40;;;;;;4770647;30;20047;-75
2023/11/14 03:30:27;;;;;;;9.73;1.50;;;12.30;90.40;;;;;;4755782;30;20039;-75
2023/11/14 03:32:53;;;;;;;5.28;1.58;;;12.30;90.30;;;;;;4770366;30;20050;-74
2023/11/14 03:35:19;;;;;;;6.63;1.52;;;12.30;90.30;;;;;;4786678;30;20126;-75
2023/11/14 03:37:45;;;;;;;6.60;1.60;;;12.40;90.30;;;;;;4771173;30;20040;-76
2023/11/14 03:40:11;;;;;;;6.43;1.77;;;12.40;90.30;;;;;;4786495;30;20194;-75
2023/11/14 03:42:37;;;;;;;5.05;1.38;;;12.40;90.30;;;;;;4786859;30;20394;-75
2023/11/14 03:45:04;;;;;;;4.88;1.55;;;12.40;90.20;;;;;;4786388;30;21223;-76
2023/11/14 03:47:29;;;;;;;7.20;1.55;;;12.40;90.20;;;;;;4770008;30;20411;-74
2023/11/14 03:49:55;;;;;;;7.65;2.00;;;12.50;90.20;;;;;;4786310;30;20055;-75
2023/11/14 03:52:21;;;;;;;7.93;1.70;;;12.40;90.20;;;;;;4770704;30;20035;-73
2023/11/14 03:54:46;;;;;;;5.70;1.30;;;12.50;90.20;;;;;;4770562;30;20044;-74
2023/11/14 03:57:13;;;;;;;9.27;2.00;;;12.40;90.20;;;;;;4785134;30;20051;-75
2023/11/14 03:59:38;;;;;;;7.60;1.70;;;12.50;90.20;;;;;;4786700;30;20040;-75
2023/11/14 04:02:04;;;;;;;7.80;1.70;;;12.50;90.20;;;;;;4769843;30;20047;-75
2023/11/14 04:04:30;;;;;;;6.90;1.60;;;12.50;90.20;;;;;;4770196;30;20050;-75
2023/11/14 04:06:56;;;;;;;11.45;1.95;;;12.50;90.20;;;;;;4755669;30;20055;-75
2023/11/14 04:09:21;;;;;;;7.53;1.90;;;12.50;90.20;;;;;;4786270;30;20074;-75
2023/11/14 04:11:48;;;;;;;8.23;1.85;;;12.50;90.10;;;;;;4786113;30;20467;-75
2023/11/14 04:14:15;;;;;;;7.57;1.70;;;12.50;90.10;;;;;;4786104;30;20116;-75
2023/11/14 04:16:40;;;;;;;8.43;2.17;;;12.50;90.10;;;;;;4769917;30;20108;-75
2023/11/14 04:19:07;;;;;;;5.68;1.25;;;12.50;90.10;;;;;;4786306;30;20051;-75
2023/11/14 04:21:33;;;;;;;8.43;2.05;;;12.50;90.10;;;;;;4755109;30;20383;-74
2023/11/14 04:23:58;;;;;;;4.20;1.50;;;12.50;90.10;;;;;;4786142;30;20089;-75
2023/11/14 04:26:24;;;;;;;8.15;1.55;;;12.50;90.10;;;;;;4786394;30;20042;-74
2023/11/14 04:28:49;;;;;;;4.75;1.48;;;12.50;90.10;;;;;;4770364;30;20109;-75
2023/11/14 04:31:16;;;;;;;5.90;1.30;;;12.50;90.10;;;;;;4786335;30;20039;-75
2023/11/14 04:33:42;;;;;;;4.93;1.48;;;12.60;90.10;;;;;;4754734;30;20399;-75
2023/11/14 04:36:09;;;;;;;6.50;1.50;;;12.50;90.10;;;;;;4754916;30;20154;-75
2023/11/14 04:38:36;;;;;;;7.68;1.70;;;12.50;90.10;;;;;;4785922;30;20483;-75
2023/11/14 04:41:02;;;;;;;6.88;1.63;;;12.60;90.10;;;;;;4785834;30;20761;-75
2023/11/14 04:43:28;;;;;;;7.00;1.70;;;12.50;90.10;;;;;;4769723;30;20035;-75
2023/11/14 04:45:54;;;;;;;6.40;1.65;;;12.60;90.10;;;;;;4769580;30;20194;-75
2023/11/14 04:48:19;;;;;;;6.65;1.50;;;12.60;90.10;;;;;;4770295;30;20035;-75
2023/11/14 04:50:45;;;;;;;5.13;1.25;;;12.50;90.10;;;;;;4769763;30;20046;-75
2023/11/14 04:53:11;;;;;;;4.40;1.42;;;12.50;90.10;;;;;;4785888;30;20475;-74
2023/11/14 04:55:36;;;;;;;3.92;1.10;;;12.50;90.10;;;;;;4785564;30;20048;-75
2023/11/14 04:58:02;;;;;;;5.97;1.80;;;12.50;90.10;;;;;;4769427;30;20066;-75
2023/11/14 05:00:29;;;;;;;7.22;2.38;;;12.50;90.10;;;;;;4769556;30;20050;-75
2023/11/14 05:02:55;;;;;;;5.93;1.48;;;12.60;90.10;;;;;;4769825;30;20031;-75
2023/11/14 05:05:21;;;;;;;5.85;1.48;;;12.50;90.10;;;;;;4769472;30;20058;-75
2023/11/14 05:07:47;;;;;;;9.10;1.45;;;12.50;90.10;;;;;;4770517;30;20063;-74
2023/11/14 05:10:13;;;;;;;6.53;1.52;;;12.50;90.10;;;;;;4789404;30;20442;-75
2023/11/14 05:12:40;;;;;;;6.95;1.70;;;12.50;90.10;;;;;;4757870;30;20035;-75
2023/11/14 05:15:09;;;;;;;5.20;1.75;;;12.50;90.10;;;;;;4789160;30;20047;-76
2023/11/14 05:17:35;;;;;;;8.35;1.65;;;12.50;90.10;;;;;;4773762;30;20047;-75
2023/11/14 05:20:01;;;;;;;6.60;1.73;;;12.60;90.10;;;;;;4758050;30;20104;-74
2023/11/14 05:22:27;;;;;;;6.20;1.70;;;12.60;90.10;;;;;;4758008;30;20063;-75
2023/11/14 05:24:52;;;;;;;5.13;1.40;;;12.60;90.00;;;;;;4772693;30;20090;-75
2023/11/14 05:27:19;;;;;;;5.15;1.60;;;12.60;90.00;;;;;;4789113;30;20490;-75
2023/11/14 05:29:45;;;;;;;4.28;1.65;;;12.60;90.00;;;;;;4789008;30;20062;-75
2023/11/14 05:32:11;;;;;;;7.28;1.52;;;12.60;90.00;;;;;;4773066;30;20377;-75
2023/11/14 05:34:37;;;;;;;5.80;1.52;;;12.60;90.00;;;;;;4788875;30;20055;-75
2023/11/14 05:37:04;;;;;;;5.85;1.52;;;12.60;90.00;;;;;;4788303;30;20208;-75
2023/11/14 05:39:30;;;;;;;5.20;1.42;;;12.60;90.10;;;;;;4772942;30;20739;-75
2023/11/14 05:41:56;;;;;;;4.75;1.20;;;12.60;90.10;;;;;;4788527;30;20047;-75
2023/11/14 05:44:21;;;;;;;6.35;1.60;;;12.60;90.10;;;;;;4789009;30;20032;-75
2023/11/14 05:46:47;;;;;;;6.22;1.40;;;12.50;90.10;;;;;;4788482;30;20044;-75
2023/11/14 05:49:13;;;;;;;6.40;1.60;;;12.60;90.10;;;;;;4788736;30;20073;-75
2023/11/14 05:51:39;;;;;;;5.85;1.58;;;12.60;90.10;;;;;;4772147;30;20051;-75
2023/11/14 05:54:05;;;;;;;5.95;1.73;;;12.60;90.40;;;;;;4788640;30;20173;-75
2023/11/14 05:56:31;;;;;;;7.45;1.77;;;12.60;90.10;;;;;;4757170;30;20131;-75
2023/11/14 05:58:57;;;;;;;7.40;1.65;;;12.60;90.10;;;;;;4788085;30;20047;-75
2023/11/14 06:01:23;;;;;;;5.35;1.58;;;12.60;90.10;;;;;;4788702;30;20036;-75
2023/11/14 06:03:49;;;;;;;6.60;1.50;;;12.50;90.10;;;;;;4788245;30;20035;-75
2023/11/14 06:06:16;;;;;;;6.47;1.63;;;12.60;90.40;;;;;;4788744;30;20130;-75
2023/11/14 06:08:42;;;;;;;8.23;1.63;;;12.60;90.10;;;;;;4772095;30;20505;-75
2023/11/14 06:11:09;;;;;;;5.57;1.42;;;12.50;90.10;;;;;;4787790;30;20530;-75
2023/11/14 06:13:35;;;;;;;5.00;1.40;;;12.60;90.10;;;;;;4788377;30;20070;-74
2023/11/14 06:16:01;;;;;;;4.22;1.30;;;12.60;90.10;;;;;;4787764;30;20048;-76
2023/11/14 06:18:30;;;;;;;6.13;1.70;;;12.60;90.10;;;;;;4788136;30;20510;-75
2023/11/14 06:20:59;;;;;;;5.88;1.38;;;12.50;90.10;;;;;;4771797;30;20054;-75
2023/11/14 06:23:24;;;;;;;4.20;1.27;;;12.50;90.10;;;;;;4787914;30;20506;-75
2023/11/14 06:25:50;;;;;;;6.13;1.30;;;12.50;90.10;;;;;;4787901;30;20056;-75
2023/11/14 06:28:16;;;;;;;4.60;1.52;;;12.50;90.10;;;;;;4771384;30;20051;-75
2023/11/14 06:30:41;;;;;;;6.10;1.33;;;12.50;90.20;;;;;;4771784;30;20096;-75
2023/11/14 06:33:07;;;;;;;3.92;1.20;;;12.40;90.10;;;;;;4771632;30;20043;-75
2023/11/14 06:35:33;;;;;;;8.73;2.10;;;12.50;90.20;;;;;;4787706;30;20116;-74
2023/11/14 06:37:58;;;;;;;9.02;1.45;;;12.50;90.20;;;;;;4787848;30;20034;-75
2023/11/14 06:40:24;;;;;;;6.63;1.70;;;12.50;90.10;;;;;;4756449;30;20047;-75
2023/11/14 06:42:50;;;;;;;5.22;1.50;;;12.50;90.20;;;;;;4771217;30;21932;-74
2023/11/14 06:45:17;;;;;;;5.20;1.63;;;12.50;90.20;;;;;;4771412;30;20124;-75
2023/11/14 06:47:43;;;;;;;7.63;1.80;;;12.50;90.20;;;;;;4756984;30;20044;-75
2023/11/14 06:50:10;;;;;;;4.72;1.42;;;12.50;90.20;;;;;;4771521;30;20423;-76
2023/11/14 06:52:36;;;;;;;7.60;1.25;;;12.50;90.20;;;;;;4771936;30;20050;-75
2023/11/14 06:55:03;;;;;;;5.70;1.83;;;12.40;90.10;;;;;;4771331;30;20488;-74
2023/11/14 06:57:28;;;;;;;5.10;1.40;;;12.40;90.20;;;;;;4787768;30;20051;-75
2023/11/14 06:59:54;;;;;;;6.00;1.55;;;12.40;90.20;;;;;;4771208;30;20050;-75
2023/11/14 07:02:21;;;;;;;5.90;1.40;;;12.50;90.20;;;;;;4771384;30;20043;-73
2023/11/14 07:04:47;;;;;;;4.68;1.48;;;12.50;90.20;;;;;;4771503;30;20039;-74
2023/11/14 07:07:12;;;;;;;6.28;1.50;;;12.40;90.20;;;;;;4756065;30;20043;-74
2023/11/14 07:09:38;;;;;;;5.45;1.45;;;12.40;90.10;;;;;;4787298;30;20085;-73
2023/11/14 07:12:04;;;;;;;6.70;1.42;;;12.50;90.10;;;;;;4787056;30;20048;-73
2023/11/14 07:14:30;;;;;;;5.75;1.40;;;12.50;90.10;;;;;;4771443;30;20047;-74
2023/11/14 07:16:56;;;;;;;5.10;1.10;;;12.50;90.10;;;;;;4786888;30;20570;-74
2023/11/14 07:19:22;;;;;;;3.88;1.40;;;12.40;90.10;;;;;;4787251;30;20039;-74
2023/11/14 07:21:48;;;;;;;5.15;0.88;;;12.50;90.20;;;;;;4771122;30;20484;-75
2023/11/14 07:24:14;;;;;;;4.78;1.45;;;12.40;90.20;;;;;;4786709;30;20035;-75
2023/11/14 07:26:40;;;;;;;5.35;1.30;;;12.40;90.20;;;;;;4770654;30;20645;-74
2023/11/14 07:29:06;;;;;;;4.63;1.58;;;12.40;90.20;;;;;;4786726;30;20491;-74
2023/11/14 07:31:32;;;;;;;9.93;1.48;;;12.40;90.20;;;;;;4755900;30;20051;-76
2023/11/14 07:34:06;;;;;;;6.45;1.60;;;12.40;90.20;;;;;;4786929;30;20043;-74
2023/11/14 07:36:49;;;;;;;4.28;1.17;;;12.50;90.20;;;;;;4769570;30;20055;-75
2023/11/14 07:39:40;;;;;;;4.00;1.10;;;12.50;90.20;;;;;;4786074;30;20089;-73
2023/11/14 07:42:19;;;;;;;4.05;1.15;;;12.50;90.20;;;;;;4698458;30;20049;-74
2023/11/14 07:45:00;;;;;;;6.45;1.60;;;12.40;90.20;;;;;;4698253;30;20517;-75
2023/11/14 07:48:07;;;;;;;;;;;12.40;90.20;;;;;;4698449;30;20125;-74
2023/11/14 07:50:34;;;;;;;3.75;1.20;;;12.40;90.20;;;;;;4662385;30;19919;-74
2023/11/14 07:52:59;;;;;;;5.30;1.40;;;12.40;90.20;;;;;;4650670;30;20060;-74
2023/11/14 07:55:25;;;;;;;2.17;1.00;;;12.40;90.20;;;;;;4664971;30;20439;-74
2023/11/14 07:57:53;;;;;;;4.28;1.30;;;12.40;90.20;;;;;;4664797;30;20054;-73
2023/11/14 08:00:20;;;;;;;4.32;1.27;;;12.40;90.20;;;;;;4679800;30;20089;-75
2023/11/14 08:02:58;;;;;;;6.35;1.52;;;12.40;90.30;;;;;;4650676;30;20049;-76
2023/11/14 08:05:24;;;;;;;6.47;1.25;;;12.50;90.40;;;;;;4646599;30;20061;-76
2023/11/14 08:07:52;;;;;;;3.22;1.10;;;12.30;90.30;;;;;;4647350;30;20142;-76
2023/11/14 08:10:18;;;;;;;4.68;1.27;;;12.30;90.40;;;;;;4645367;30;20046;-74
2023/11/14 08:12:43;;;;;;;2.97;0.90;;;12.30;90.40;;;;;;4668553;30;20038;-74
2023/11/14 08:15:09;;;;;;;5.28;1.20;;;12.20;90.40;;;;;;4653842;30;20045;-76
2023/11/14 08:17:35;;;;;;;4.97;1.23;;;12.30;90.80;;;;;;4681749;30;20490;-75
2023/11/14 08:20:10;;;;;;;4.32;1.13;;;12.20;90.50;;;;;;4667728;30;20572;-75
2023/11/14 08:22:35;;;;;;;3.08;0.88;;;12.20;90.60;;;;;;4668019;30;20090;-75
2023/11/14 08:25:04;;;;;;;3.17;1.15;;;12.20;90.60;;;;;;4748154;30;20071;-74
2023/11/14 08:27:36;;;;;;;3.17;1.10;;;12.20;90.60;;;;;;4751627;30;20129;-75
2023/11/14 08:30:06;;;;;;;4.85;1.40;;;12.20;90.60;;;;;;4744281;30;20040;-76
2023/11/14 08:42:15;;;;;;;6.65;1.33;;;12.20;90.60;;;;;;4596191;31;20698;-75
2023/11/14 08:44:46;;;;;;;4.70;1.30;;;12.10;90.60;;;;;;4580324;31;20086;-76
2023/11/14 08:47:12;;;;;;;2.35;1.00;;;12.20;90.60;;;;;;4581309;31;20077;-75
2023/11/14 08:50:23;;;;;;;4.25;1.20;;;12.10;90.60;;;;;;4581109;31;20068;-75
2023/11/14 08:52:49;;;;;;;3.90;1.08;;;12.20;90.70;;;;;;4564462;31;20060;-76
2023/11/14 08:55:20;;;;;;;5.07;1.10;;;12.20;90.70;;;;;;4581086;31;20044;-75
2023/11/14 08:58:08;;;;;;;;;;;12.00;90.60;;;;;;4596492;31;20052;-76
2023/11/14 09:00:35;;;;;;;6.60;1.40;;;12.30;90.70;;;;;;4576184;31;19928;-77
2023/11/14 09:03:09;;;;;;;4.60;1.30;;;12.20;90.60;;;;;;4595462;31;20100;-76
2023/11/14 09:05:34;;;;;;;4.68;1.13;;;12.20;90.60;;;;;;4610294;31;20519;-76
2023/11/14 09:08:03;;;;;;;2.17;0.90;;;12.30;90.70;;;;;;4610614;31;20036;-76
2023/11/14 09:10:37;;;;;;;2.58;0.90;;;12.20;90.60;;;;;;4626861;30;20039;-75
2023/11/14 09:13:03;;;;;;;3.65;1.08;;;12.30;90.70;;;;;;4656474;30;20049;-75
2023/11/14 09:15:33;;;;;;;3.90;1.10;;;12.30;90.60;;;;;;4727051;30;20495;-76
2023/11/14 09:18:03;;;;;;;4.63;1.08;;;12.40;90.60;;;;;;4735009;30;20063;-75
2023/11/14 09:20:31;;;;;;;5.22;1.02;;;12.50;90.60;;;;;;4721959;30;20073;-75
2023/11/14 09:22:57;;;;;;;4.97;1.48;;;12.50;90.50;;;;;;4721068;30;20076;-76
2023/11/14 09:25:25;;;;;;;6.78;1.52;;;12.50;90.40;;;;;;4719542;30;20040;-75
2023/11/14 09:27:51;;;;;;;5.90;1.45;;;12.50;90.40;;;;;;4700900;30;20087;-75
2023/11/14 09:30:19;;;;;;;6.50;1.70;;;12.60;90.40;;;;;;4686545;30;20517;-76
2023/11/14 09:32:46;;;;;;;6.10;1.50;;;12.60;90.50;;;;;;4672988;30;20053;-75
2023/11/14 09:35:18;;;;;;;3.95;1.10;;;12.70;90.50;;;;;;4686775;30;20053;-76
2023/11/14 09:37:47;;;;;;;7.35;1.38;;;12.70;90.40;;;;;;4685388;30;20056;-74
2023/11/14 09:40:25;;;;;;;5.68;1.17;;;12.80;90.40;;;;;;4687088;30;20041;-76
2023/11/14 09:42:53;;;;;;;4.30;1.20;;;12.80;90.40;;;;;;4700633;30;20115;-76
2023/11/14 09:45:24;;;;;;;3.83;1.20;;;13.00;90.40;;;;;;4701243;30;20136;-75
2023/11/14 09:48:08;;;;;;;5.30;1.00;;;12.90;90.30;;;;;;4697896;30;20494;-75
2023/11/14 09:50:36;;;;;;;2.72;1.00;;;13.20;90.40;;;;;;4667793;30;20514;-75
2023/11/14 09:53:06;;;;;;;3.95;1.10;;;13.10;90.30;;;;;;4666260;30;20069;-75
2023/11/14 09:55:34;;;;;;;3.75;1.20;;;13.20;90.20;;;;;;4670198;30;20049;-75
2023/11/14 09:58:05;;;;;;;3.83;1.02;;;13.20;90.20;;;;;;4669980;30;20093;-75
2023/11/14 10:00:47;;;;;;;5.63;1.17;;;13.20;90.10;;;;;;4680535;30;20077;-75
2023/11/14 10:03:13;;;;;;;4.50;1.30;;;13.20;90.10;;;;;;4663237;30;20053;-74
2023/11/14 10:05:39;;;;;;;3.03;1.05;;;13.20;90.20;;;;;;4635641;30;20074;-75
2023/11/14 10:08:12;;;;;;;6.65;1.30;;;13.30;90.20;;;;;;4649256;30;20041;-76
2023/11/14 10:10:57;;;;;;;4.68;1.38;;;13.40;90.20;;;;;;4649379;30;20057;-75
2023/11/14 10:13:28;;;;;;;4.85;1.30;;;13.40;90.10;;;;;;4666452;30;20073;-75
2023/11/14 10:16:12;;;;;;;;;;;13.50;90.10;;;;;;4677275;30;20049;-75
2023/11/14 10:18:38;;;;;;;4.43;1.40;;;13.50;90.10;;;;;;4657849;30;19927;-75
2023/11/14 10:21:13;;;;;;;6.88;1.50;;;13.60;90.00;;;;;;4678422;30;20045;-74
2023/11/14 10:23:39;;;;;;;5.63;1.58;;;13.70;90.00;;;;;;4686943;30;20048;-75
2023/11/14 10:26:09;;;;;;;3.38;1.02;;;13.70;89.90;;;;;;4671823;30;20430;-75
2023/11/14 10:28:35;;;;;;;3.03;1.15;;;13.80;89.80;;;;;;4700398;30;20103;-74
2023/11/14 10:31:01;;;;;;;6.75;1.58;;;13.90;89.60;;;;;;4696126;30;20373;-75
2023/11/14 10:33:39;;;;;;;6.50;1.52;;;13.90;89.50;;;;;;4734948;30;20040;-74
2023/11/14 10:36:08;;;;;;;7.63;1.70;;;13.80;89.60;;;;;;4734717;30;20082;-75
2023/11/14 10:38:35;;;;;;;4.30;1.25;;;13.70;89.60;;;;;;4735155;30;20102;-74
2023/11/14 10:41:21;;;;;;;4.65;1.40;;;13.60;89.70;;;;;;4749066;30;20079;-75
2023/11/14 10:43:57;;;;;;;3.22;1.20;;;13.70;89.90;;;;;;4757769;30;20490;-76
2023/11/14 10:46:28;;;;;;;5.85;1.38;;;13.70;90.00;;;;;;4758123;30;20075;-75
2023/11/14 10:49:09;;;;;;;3.90;1.40;;;13.70;89.90;;;;;;4741618;30;20070;-75
2023/11/14 10:51:36;;;;;;;5.75;1.80;;;13.70;89.90;;;;;;4771211;30;20047;-76
2023/11/14 10:54:06;;;;;;;6.20;1.85;;;13.70;89.80;;;;;;4741621;30;20035;-74
2023/11/14 10:56:35;;;;;;;5.75;1.42;;;13.70;89.80;;;;;;4756648;30;20074;-76
2023/11/14 10:59:12;;;;;;;4.65;1.52;;;13.70;89.80;;;;;;4756534;30;20107;-76
2023/11/14 11:01:40;;;;;;;6.97;1.52;;;13.70;89.80;;;;;;4758030;30;20046;-75
2023/11/14 11:04:10;;;;;;;6.72;1.60;;;13.70;89.90;;;;;;4742716;30;20031;-75
2023/11/14 11:06:36;;;;;;;5.45;1.45;;;13.70;89.90;;;;;;4752543;30;20044;-75
2023/11/14 11:09:49;;;;;;;4.47;1.25;;;13.60;89.80;;;;;;4740399;30;20086;-76
2023/11/14 11:12:15;;;;;;;4.28;1.38;;;13.70;89.90;;;;;;4756668;30;20063;-75
2023/11/14 11:14:44;;;;;;;5.22;1.38;;;13.70;89.90;;;;;;4787435;29;20046;-77
2023/11/14 11:17:43;;;;;;;4.70;1.63;;;13.60;89.80;;;;;;4741414;30;20070;-76
2023/11/14 11:20:39;;;;;;;5.43;1.30;;;13.60;90.00;;;;;;4756386;30;20525;-76
2023/11/14 11:23:08;;;;;;;3.38;1.33;;;13.70;90.00;;;;;;4753358;30;20082;-76
2023/11/14 11:25:41;;;;;;;3.30;1.30;;;13.70;90.00;;;;;;4766538;30;20602;-76
2023/11/14 11:28:39;;;;;;;5.20;1.40;;;13.70;90.00;;;;;;4737352;30;20039;-75
2023/11/14 11:31:24;;;;;;;4.07;1.25;;;13.60;89.90;;;;;;4681756;30;20083;-76
2023/11/14 11:38:13;;;;;;;3.30;1.15;;;13.60;90.10;;;;;;4643370;30;20430;-76
2023/11/14 11:41:20;;;;;;;3.50;1.23;;;13.50;90.10;;;;;;4645264;30;20050;-76
2023/11/14 11:44:15;;;;;;;3.33;1.15;;;13.40;90.10;;;;;;4643665;30;20065;-75
2023/11/14 11:46:48;;;;;;;2.40;0.90;;;13.50;90.30;;;;;;4627832;31;20066;-75
2023/11/14 11:49:29;;;;;;;3.65;0.90;;;13.30;90.30;;;;;;4611243;31;20099;-75
2023/11/14 11:52:13;;;;;;;3.17;0.85;;;13.30;90.40;;;;;;4597821;31;20512;-75
2023/11/14 11:54:39;;;;;;;3.25;1.00;;;13.20;90.40;;;;;;4609105;31;20072;-75
2023/11/14 11:57:10;;;;;;;5.15;1.00;;;13.20;90.40;;;;;;4613984;31;20047;-75
2023/11/14 12:00:17;;;;;;;2.30;0.90;;;13.00;90.50;;;;;;4614629;31;20511;-76
2023/11/14 12:30:34;;;;;;;4.82;1.50;;;13.10;90.50;;;;;;4627828;30;20446;-76
2023/11/14 12:33:57;;;;;;;3.47;1.30;;;13.10;90.50;;;;;;4650297;30;20050;-76
2023/11/14 12:37:12;;;;;;;2.97;1.50;;;13.10;90.50;;;;;;4596076;31;20059;-75
2023/11/14 12:40:10;;;;;;;6.15;1.63;;;12.90;90.60;;;;;;4610483;31;20058;-75
2023/11/14 12:43:07;;;;;;;3.47;1.40;;;13.00;90.70;;;;;;4578794;31;20193;-76
2023/11/14 12:49:28;;;;;;;4.32;1.40;;;12.90;90.70;;;;;;4547291;31;20084;-77
2023/11/14 12:52:30;;;;;;;2.53;1.10;;;13.00;90.70;;;;;;4547979;31;20053;-76
2023/11/14 12:56:01;;;;;;;2.45;1.20;;;13.10;90.70;;;;;;4565416;31;20053;-76
2023/11/14 13:05:13;;;;;;;2.28;0.98;;;13.00;90.60;;;;;;4516010;31;20178;-75
2023/11/14 13:08:25;;;;;;;2.78;1.20;;;13.00;90.60;;;;;;4515286;31;20073;-75
2023/11/14 13:10:53;;;;;;;;;;;12.90;90.60;;;;;;4541064;31;20049;-74
2023/11/14 13:35:04;;;;;;;0.70;0.70;;;12.80;90.60;;;;;;4772406;30;20112;-75
2023/11/14 13:37:30;;;;;;;1.95;0.88;;;12.90;90.60;;;;;;4743168;30;20044;-75
2023/11/14 13:39:56;;;;;;;1.38;0.73;;;12.80;90.60;;;;;;4788279;30;20126;-75
2023/11/14 13:42:22;;;;;;;2.05;0.80;;;12.80;90.60;;;;;;4788903;30;20375;-76
2023/11/14 13:44:47;;;;;;;1.27;0.80;;;12.80;90.60;;;;;;4788207;30;20558;-76
2023/11/14 13:47:13;;;;;;;1.73;0.70;;;12.80;90.90;;;;;;4772180;30;20054;-75
2023/11/14 13:49:39;;;;;;;1.88;0.73;;;12.80;90.60;;;;;;4771977;30;20085;-76
2023/11/14 13:52:05;;;;;;;0.60;0.60;;;12.80;90.60;;;;;;4772096;30;20052;-75
2023/11/14 13:54:32;;;;;;;1.08;0.80;;;12.80;90.60;;;;;;4788127;30;20039;-75
2023/11/14 13:57:04;;;;;;;1.45;0.60;;;12.80;90.60;;;;;;4788275;30;20887;-75
2023/11/14 13:59:30;;;;;;;1.63;0.68;;;12.80;90.60;;;;;;4788449;30;20419;-75
2023/11/14 14:01:56;;;;;;;0.75;0.57;;;12.80;90.60;;;;;;4788406;30;20051;-75
2023/11/14 14:04:22;;;;;;;1.70;0.77;;;12.80;90.60;;;;;;4788378;30;20074;-74
2023/11/14 14:06:48;;;;;;;1.55;0.95;;;12.80;90.60;;;;;;4787959;30;20123;-74
2023/11/14 14:09:16;;;;;;;1.27;0.68;;;12.70;90.60;;;;;;4771932;30;20054;-75
2023/11/14 14:11:42;;;;;;;3.28;1.00;;;12.70;90.60;;;;;;4771542;30;20055;-75
2023/11/14 14:57:34;;;;;;;2.33;0.77;;;12.00;91.30;;;;;;4457881;32;20317;-75
2023/11/14 15:18:18;;;;;;;1.40;0.50;;;11.80;91.40;;;;;;4391496;32;20187;-74